Time;durP1;ratioP1;P1;durP2;ratioP2;P2;SDS_P1;SDS_P2;PMS_P1;PMS_P2;Temp;Humidity;BMP_temperature;BMP_pressure;BME280_temperature;BME280_humidity;BME280_pressure;Samples;Min_cycle;Max_cycle;Signal;HPM_P1;HPM_P2
2021/12/15 00:01:56;;;;;;;195.63;86.60;;;;;;;;;;6237641;28;20026;-70
2021/12/15 00:04:56;;;;;;;271.60;112.93;;;;;;;;;;6222175;28;20048;-70
2021/12/15 00:07:59;;;;;;;207.60;99.25;;;;;;;;;;6243834;28;20025;-70
2021/12/15 00:11:00;;;;;;;210.52;100.65;;;;;;;;;;6243664;28;20099;-70
2021/12/15 00:14:00;;;;;;;214.68;88.60;;;;;;;;;;6243328;28;20022;-70
2021/12/15 00:17:01;;;;;;;214.75;94.35;;;;;;;;;;6244049;28;20021;-70
2021/12/15 00:20:03;;;;;;;195.80;85.95;;;;;;;;;;6243811;28;20410;-71
2021/12/15 00:23:03;;;;;;;189.10;84.47;;;;;;;;;;6244050;28;20105;-70
2021/12/15 00:26:04;;;;;;;194.23;82.28;;;;;;;;;;6243521;28;20428;-70
2021/12/15 00:29:06;;;;;;;193.27;83.22;;;;;;;;;;6220491;28;20112;-70
2021/12/15 00:32:06;;;;;;;203.52;88.03;;;;;;;;;;6219026;28;20053;-70
2021/12/15 00:35:07;;;;;;;203.52;92.57;;;;;;;;;;6219120;28;20022;-70
2021/12/15 00:38:08;;;;;;;194.93;82.88;;;;;;;;;;6219065;28;20021;-70
2021/12/15 00:41:09;;;;;;;178.48;82.45;;;;;;;;;;6218580;28;20482;-70
2021/12/15 00:44:09;;;;;;;190.63;83.47;;;;;;;;;;6218630;28;20053;-70
2021/12/15 00:47:10;;;;;;;202.02;86.10;;;;;;;;;;6219028;28;20101;-70
2021/12/15 00:50:12;;;;;;;196.23;88.85;;;;;;;;;;6223710;28;20381;-70
2021/12/15 00:53:13;;;;;;;210.80;92.57;;;;;;;;;;6243045;28;20408;-70
2021/12/15 00:56:13;;;;;;;199.75;92.78;;;;;;;;;;6242959;28;20017;-70
2021/12/15 00:59:14;;;;;;;203.10;89.38;;;;;;;;;;6241090;28;20084;-70
2021/12/15 01:02:14;;;;;;;189.05;83.38;;;;;;;;;;6218734;28;20172;-70
2021/12/15 01:05:18;;;;;;;192.13;82.25;;;;;;;;;;6219986;28;20021;-70
2021/12/15 01:08:20;;;;;;;195.15;84.45;;;;;;;;;;6217369;28;20032;-70
2021/12/15 01:11:44;;;;;;;188.23;83.45;;;;;;;;;;6216916;28;20030;-70
2021/12/15 01:21:25;;;;;;;193.65;84.93;;;;;;;;;;6222414;28;20329;-70
2021/12/15 01:24:26;;;;;;;184.00;84.57;;;;;;;;;;6228531;28;20095;-70
2021/12/15 01:27:27;;;;;;;185.93;85.90;;;;;;;;;;6235335;28;20037;-70
2021/12/15 01:30:28;;;;;;;183.32;82.53;;;;;;;;;;6224868;28;20022;-70
2021/12/15 01:33:29;;;;;;;179.25;80.10;;;;;;;;;;6221830;28;20386;-70
2021/12/15 01:36:29;;;;;;;182.90;87.47;;;;;;;;;;6224958;28;20052;-70
2021/12/15 01:39:29;;;;;;;181.73;77.65;;;;;;;;;;6222697;28;20026;-70
2021/12/15 01:42:32;;;;;;;171.50;81.45;;;;;;;;;;6221876;28;20026;-71
2021/12/15 01:48:59;;;;;;;183.30;86.10;;;;;;;;;;6221811;28;20034;-71
2021/12/15 01:52:02;;;;;;;196.25;93.32;;;;;;;;;;6228658;28;20026;-71
2021/12/15 01:55:15;;;;;;;191.85;88.95;;;;;;;;;;6222513;28;20014;-71
2021/12/15 01:58:15;;;;;;;175.18;86.57;;;;;;;;;;6222164;28;20029;-71
2021/12/15 02:01:16;;;;;;;158.52;76.95;;;;;;;;;;6224060;28;20080;-71
2021/12/15 02:04:18;;;;;;;190.02;86.10;;;;;;;;;;6223901;28;20032;-71
2021/12/15 02:07:20;;;;;;;192.25;88.38;;;;;;;;;;6225317;28;20014;-71
2021/12/15 02:10:23;;;;;;;197.77;90.57;;;;;;;;;;6220796;28;20046;-71
2021/12/15 02:13:23;;;;;;;184.10;90.80;;;;;;;;;;6233063;28;20030;-71
2021/12/15 02:16:24;;;;;;;175.82;84.50;;;;;;;;;;6221350;28;20504;-71
2021/12/15 02:19:24;;;;;;;186.07;88.80;;;;;;;;;;6223444;28;20026;-71
2021/12/15 02:22:25;;;;;;;192.27;92.28;;;;;;;;;;6224778;28;20541;-71
2021/12/15 02:25:25;;;;;;;193.20;86.82;;;;;;;;;;6221474;28;20034;-71
2021/12/15 02:28:26;;;;;;;177.90;88.43;;;;;;;;;;6245914;28;20017;-71
2021/12/15 02:37:05;;;;;;;175.23;86.18;;;;;;;;;;6245411;28;20384;-71
2021/12/15 02:38:18;;;;;;;169.40;88.53;;;;;;;;;;6246186;28;20037;-71
2021/12/15 02:41:22;;;;;;;174.80;81.22;;;;;;;;;;6246022;28;20025;-71
2021/12/15 02:44:23;;;;;;;165.85;81.03;;;;;;;;;;6235334;28;20026;-71
2021/12/15 02:47:26;;;;;;;172.70;78.57;;;;;;;;;;6221859;28;20425;-71
2021/12/15 02:50:28;;;;;;;174.95;77.05;;;;;;;;;;6229750;28;20021;-71
2021/12/15 02:53:29;;;;;;;166.82;76.45;;;;;;;;;;6245878;28;20029;-71
2021/12/15 02:56:29;;;;;;;172.02;75.35;;;;;;;;;;6244682;28;20044;-71
2021/12/15 02:59:35;;;;;;;171.55;75.45;;;;;;;;;;6245332;28;20421;-71
2021/12/15 03:05:53;;;;;;;162.70;73.65;;;;;;;;;;6225321;28;20076;-71
2021/12/15 03:15:33;;;;;;;166.07;79.07;;;;;;;;;;6245444;28;20430;-71
2021/12/15 03:18:34;;;;;;;172.60;80.13;;;;;;;;;;6222170;28;20029;-71
2021/12/15 03:21:34;;;;;;;136.55;62.20;;;;;;;;;;6220306;28;20433;-71
2021/12/15 03:24:35;;;;;;;138.70;67.10;;;;;;;;;;6243442;28;20036;-71
2021/12/15 03:34:36;;;;;;;181.85;77.95;;;;;;;;;;6244699;28;20477;-71
2021/12/15 03:37:36;;;;;;;162.20;74.03;;;;;;;;;;6244408;28;20032;-71
2021/12/15 03:40:40;;;;;;;170.57;81.22;;;;;;;;;;6245659;28;20049;-71
2021/12/15 03:43:40;;;;;;;184.10;85.15;;;;;;;;;;6243171;28;20499;-71
2021/12/15 03:46:41;;;;;;;166.90;77.80;;;;;;;;;;6244732;28;20022;-71
2021/12/15 03:49:41;;;;;;;165.57;79.60;;;;;;;;;;6244091;28;20044;-71
2021/12/15 03:52:42;;;;;;;175.52;79.47;;;;;;;;;;6243434;28;20488;-72
2021/12/15 03:55:42;;;;;;;186.50;81.18;;;;;;;;;;6244419;28;20018;-71
2021/12/15 03:58:43;;;;;;;177.15;83.63;;;;;;;;;;6244432;28;20025;-71
2021/12/15 04:01:44;;;;;;;174.53;84.00;;;;;;;;;;6244241;28;20455;-71
2021/12/15 04:04:45;;;;;;;184.18;83.97;;;;;;;;;;6243731;28;20461;-71
2021/12/15 04:07:45;;;;;;;178.88;82.10;;;;;;;;;;6244123;28;20405;-71
2021/12/15 04:10:46;;;;;;;169.27;77.13;;;;;;;;;;6242737;28;20054;-71
2021/12/15 04:13:47;;;;;;;155.25;75.13;;;;;;;;;;6242352;28;20025;-71
2021/12/15 04:17:00;;;;;;;149.60;69.80;;;;;;;;;;6244122;28;20032;-71
2021/12/15 04:20:09;;;;;;;160.13;71.90;;;;;;;;;;6243702;28;20025;-71
2021/12/15 04:23:11;;;;;;;156.30;69.75;;;;;;;;;;6243907;28;20532;-71
2021/12/15 04:26:11;;;;;;;149.10;72.70;;;;;;;;;;6243815;28;20021;-71
2021/12/15 04:29:12;;;;;;;151.20;71.68;;;;;;;;;;6243266;28;20032;-71
2021/12/15 04:32:15;;;;;;;146.95;73.00;;;;;;;;;;6243621;28;20087;-71
2021/12/15 04:35:15;;;;;;;155.52;71.88;;;;;;;;;;6243047;28;20434;-71
2021/12/15 04:38:16;;;;;;;156.45;71.07;;;;;;;;;;6244052;28;20025;-71
2021/12/15 04:41:17;;;;;;;146.32;67.82;;;;;;;;;;6243513;28;20022;-71
2021/12/15 04:44:18;;;;;;;251.30;96.32;;;;;;;;;;6243265;28;20022;-71
2021/12/15 04:47:19;;;;;;;242.27;99.97;;;;;;;;;;6243385;28;20040;-71
2021/12/15 04:50:21;;;;;;;158.30;71.40;;;;;;;;;;6243628;28;20129;-71
2021/12/15 04:53:21;;;;;;;145.65;69.32;;;;;;;;;;6243451;28;20093;-71
2021/12/15 04:56:23;;;;;;;156.98;72.30;;;;;;;;;;6243432;28;20027;-71
2021/12/15 04:59:23;;;;;;;164.10;80.05;;;;;;;;;;6242804;28;20055;-71
2021/12/15 05:02:25;;;;;;;191.68;79.65;;;;;;;;;;6242735;28;20430;-71
2021/12/15 05:05:26;;;;;;;167.80;76.77;;;;;;;;;;6241351;28;20014;-71
2021/12/15 05:08:27;;;;;;;179.82;80.18;;;;;;;;;;6242765;28;20833;-71
2021/12/15 05:11:27;;;;;;;187.18;79.50;;;;;;;;;;6242856;28;20025;-71
2021/12/15 05:14:27;;;;;;;183.00;82.72;;;;;;;;;;6241621;28;20022;-71
2021/12/15 05:17:27;;;;;;;166.75;78.47;;;;;;;;;;6242548;28;20088;-71
2021/12/15 05:20:28;;;;;;;152.18;78.35;;;;;;;;;;6243013;28;20540;-70
2021/12/15 05:23:31;;;;;;;174.55;75.50;;;;;;;;;;6242682;28;20112;-71
2021/12/15 05:26:31;;;;;;;167.20;73.75;;;;;;;;;;6242543;28;20025;-70
2021/12/15 05:29:32;;;;;;;174.20;81.00;;;;;;;;;;6241829;28;20021;-70
2021/12/15 05:32:32;;;;;;;180.48;80.57;;;;;;;;;;6240380;28;20021;-70
2021/12/15 05:35:33;;;;;;;189.90;84.85;;;;;;;;;;6242278;28;20017;-70
2021/12/15 05:38:34;;;;;;;174.13;84.18;;;;;;;;;;6242684;28;20032;-70
2021/12/15 05:41:35;;;;;;;171.07;82.35;;;;;;;;;;6240506;28;20116;-71
2021/12/15 05:44:35;;;;;;;174.53;80.40;;;;;;;;;;6219312;28;20033;-71
2021/12/15 05:47:36;;;;;;;161.30;73.65;;;;;;;;;;6237737;28;20025;-71
2021/12/15 05:50:36;;;;;;;189.63;79.80;;;;;;;;;;6242723;28;20112;-71
2021/12/15 05:53:37;;;;;;;156.82;81.25;;;;;;;;;;6241135;28;20018;-71
2021/12/15 05:56:37;;;;;;;164.55;79.15;;;;;;;;;;6242632;28;20048;-71
2021/12/15 05:59:37;;;;;;;168.77;83.55;;;;;;;;;;6242285;28;20021;-71
2021/12/15 06:02:38;;;;;;;180.02;85.03;;;;;;;;;;6241237;28;20037;-71
2021/12/15 06:05:38;;;;;;;198.57;99.38;;;;;;;;;;6234876;28;20018;-71
2021/12/15 06:08:39;;;;;;;193.38;86.25;;;;;;;;;;6241320;28;20045;-71
2021/12/15 06:11:40;;;;;;;197.48;90.10;;;;;;;;;;6245124;28;20025;-71
2021/12/15 06:14:42;;;;;;;201.20;94.47;;;;;;;;;;6245570;28;20100;-71
2021/12/15 06:17:43;;;;;;;197.75;92.65;;;;;;;;;;6245890;28;20458;-71
2021/12/15 06:20:44;;;;;;;215.45;94.60;;;;;;;;;;6245049;28;20041;-71
2021/12/15 06:23:47;;;;;;;176.40;80.28;;;;;;;;;;6246373;28;20379;-71
2021/12/15 06:26:47;;;;;;;170.70;78.32;;;;;;;;;;6246246;28;20017;-71
2021/12/15 06:29:49;;;;;;;169.55;78.95;;;;;;;;;;6244257;28;20033;-71
2021/12/15 06:32:49;;;;;;;187.68;80.30;;;;;;;;;;6246419;28;20026;-71
2021/12/15 06:35:53;;;;;;;190.13;88.55;;;;;;;;;;6245921;28;20032;-71
2021/12/15 06:38:54;;;;;;;184.27;84.25;;;;;;;;;;6245405;28;20029;-71
2021/12/15 06:41:54;;;;;;;155.40;76.85;;;;;;;;;;6239708;28;20541;-71
2021/12/15 06:44:56;;;;;;;168.43;79.78;;;;;;;;;;6231092;28;20449;-71
2021/12/15 07:01:03;;;;;;;180.57;84.47;;;;;;;;;;6226826;28;20045;-71
2021/12/15 07:04:04;;;;;;;180.38;90.38;;;;;;;;;;6240009;28;20449;-71
2021/12/15 07:07:04;;;;;;;186.05;87.18;;;;;;;;;;6234397;28;20024;-71
2021/12/15 07:10:06;;;;;;;206.15;95.07;;;;;;;;;;6236874;28;20045;-71
2021/12/15 07:13:06;;;;;;;206.75;90.57;;;;;;;;;;6244084;28;20482;-71
2021/12/15 07:16:08;;;;;;;154.00;72.18;;;;;;;;;;6242697;28;20018;-71
2021/12/15 07:19:17;;;;;;;197.68;89.30;;;;;;;;;;6242752;28;20100;-71
2021/12/15 07:22:32;;;;;;;188.50;88.97;;;;;;;;;;6242024;28;20021;-72
2021/12/15 07:25:32;;;;;;;179.25;84.28;;;;;;;;;;6244808;28;20025;-72
2021/12/15 07:28:32;;;;;;;178.85;86.85;;;;;;;;;;6244822;28;20355;-71
2021/12/15 07:31:33;;;;;;;174.68;75.80;;;;;;;;;;6244938;28;20072;-72
2021/12/15 07:34:33;;;;;;;185.00;81.97;;;;;;;;;;6245067;28;20022;-72
2021/12/15 07:37:33;;;;;;;173.27;82.25;;;;;;;;;;6244622;28;20029;-72
2021/12/15 07:40:34;;;;;;;184.43;72.05;;;;;;;;;;6244871;28;20107;-72
2021/12/15 07:43:34;;;;;;;171.63;76.88;;;;;;;;;;6244480;28;20370;-72
2021/12/15 07:46:34;;;;;;;166.02;81.95;;;;;;;;;;6236812;28;20026;-72
2021/12/15 07:49:35;;;;;;;164.30;77.13;;;;;;;;;;6233112;28;20026;-72
2021/12/15 07:52:35;;;;;;;179.48;80.60;;;;;;;;;;6237550;28;20033;-72
2021/12/15 07:55:36;;;;;;;168.85;83.25;;;;;;;;;;6238394;28;20093;-72
2021/12/15 07:58:36;;;;;;;167.05;80.55;;;;;;;;;;6239768;28;20509;-72
2021/12/15 08:01:37;;;;;;;168.68;80.07;;;;;;;;;;6236993;28;20120;-72
2021/12/15 08:04:37;;;;;;;193.23;89.45;;;;;;;;;;6230440;28;20033;-72
2021/12/15 08:07:37;;;;;;;184.43;88.03;;;;;;;;;;6244535;28;20030;-72
2021/12/15 08:10:38;;;;;;;173.55;81.85;;;;;;;;;;6233655;28;20034;-72
2021/12/15 08:13:38;;;;;;;181.88;85.30;;;;;;;;;;6228187;28;20029;-72
2021/12/15 08:16:39;;;;;;;185.85;85.50;;;;;;;;;;6226365;28;20029;-72
2021/12/15 08:19:39;;;;;;;178.07;89.18;;;;;;;;;;6233863;28;20069;-72
2021/12/15 08:22:40;;;;;;;184.93;80.55;;;;;;;;;;6229646;28;20478;-72
2021/12/15 08:25:40;;;;;;;167.60;84.40;;;;;;;;;;6240870;28;20071;-72
2021/12/15 08:28:40;;;;;;;167.40;80.32;;;;;;;;;;6240721;28;20029;-72
2021/12/15 08:31:41;;;;;;;178.98;85.68;;;;;;;;;;6243536;28;20481;-72
2021/12/15 08:34:41;;;;;;;176.15;80.50;;;;;;;;;;6235528;28;20433;-72
2021/12/15 08:37:41;;;;;;;178.25;86.78;;;;;;;;;;6226792;28;20421;-72
2021/12/15 08:40:43;;;;;;;173.35;77.47;;;;;;;;;;6232100;28;20159;-72
2021/12/15 08:43:44;;;;;;;178.25;84.72;;;;;;;;;;6236786;28;20064;-72
2021/12/15 08:46:46;;;;;;;160.40;79.47;;;;;;;;;;6226904;28;20529;-72
2021/12/15 08:49:46;;;;;;;169.10;84.10;;;;;;;;;;6233874;28;20095;-72
2021/12/15 08:52:47;;;;;;;160.75;83.22;;;;;;;;;;6243143;28;20025;-72
2021/12/15 08:55:48;;;;;;;154.52;72.43;;;;;;;;;;6241897;28;20017;-72
2021/12/15 08:58:48;;;;;;;158.85;81.28;;;;;;;;;;6233829;28;20026;-72
2021/12/15 09:01:49;;;;;;;181.85;87.88;;;;;;;;;;6239711;28;20099;-72
2021/12/15 09:04:49;;;;;;;180.35;82.15;;;;;;;;;;6241920;28;20033;-72
2021/12/15 09:07:51;;;;;;;180.73;88.25;;;;;;;;;;6239223;28;20064;-72
2021/12/15 09:10:52;;;;;;;153.48;77.53;;;;;;;;;;6242456;28;20053;-72
2021/12/15 09:13:55;;;;;;;174.50;81.10;;;;;;;;;;6257397;28;20109;-72
2021/12/15 09:16:55;;;;;;;;;;;;;;;;;;6242900;28;20029;-72
2021/12/15 09:19:55;;;;;;;135.00;61.83;;;;;;;;;;6242471;28;19987;-72
2021/12/15 09:22:56;;;;;;;121.60;59.58;;;;;;;;;;6242468;28;20264;-72
2021/12/15 09:25:57;;;;;;;143.15;69.03;;;;;;;;;;6239608;28;20022;-72
2021/12/15 09:28:57;;;;;;;149.93;70.75;;;;;;;;;;6238313;28;20030;-72
2021/12/15 09:31:58;;;;;;;122.10;60.97;;;;;;;;;;6231380;28;20018;-72
2021/12/15 09:34:58;;;;;;;142.55;71.53;;;;;;;;;;6230897;28;20052;-72
2021/12/15 09:37:59;;;;;;;121.40;60.33;;;;;;;;;;6221192;28;20026;-72
2021/12/15 09:41:01;;;;;;;137.32;64.47;;;;;;;;;;6242370;28;20108;-72
2021/12/15 09:44:08;;;;;;;113.25;55.13;;;;;;;;;;6241213;28;20026;-72
2021/12/15 09:47:16;;;;;;;104.50;52.70;;;;;;;;;;6236425;28;20349;-72
2021/12/15 10:03:52;;;;;;;141.68;71.15;;;;;;;;;;6239037;28;20064;-72
2021/12/15 10:20:06;;;;;;;148.15;67.30;;;;;;;;;;6244532;28;20037;-71
2021/12/15 10:23:11;;;;;;;108.77;52.13;;;;;;;;;;6246539;28;20655;-71
2021/12/15 10:26:11;;;;;;;159.48;74.60;;;;;;;;;;6245287;28;20018;-71
2021/12/15 10:29:12;;;;;;;145.40;68.65;;;;;;;;;;6244824;28;20026;-71
2021/12/15 10:32:14;;;;;;;142.32;65.38;;;;;;;;;;6231791;28;20022;-71
2021/12/15 10:35:14;;;;;;;;;;;;;;;;;;6225467;28;20010;-71
2021/12/15 10:38:18;;;;;;;158.95;73.95;;;;;;;;;;6231267;28;19936;-71
2021/12/15 10:41:22;;;;;;;163.35;79.50;;;;;;;;;;6221597;28;20133;-71
2021/12/15 10:44:24;;;;;;;148.48;56.53;;;;;;;;;;6234430;28;20014;-71
2021/12/15 10:47:24;;;;;;;;;;;;;;;;;;6246039;28;20025;-71
2021/12/15 10:50:24;;;;;;;190.15;83.75;;;;;;;;;;6245223;28;19960;-71
2021/12/15 10:53:29;;;;;;;182.32;81.25;;;;;;;;;;6244321;28;20051;-71
2021/12/15 10:56:32;;;;;;;187.90;88.28;;;;;;;;;;6245001;28;20016;-71
2021/12/15 10:59:34;;;;;;;171.20;81.30;;;;;;;;;;6245689;28;20029;-71
2021/12/15 11:02:35;;;;;;;206.27;89.30;;;;;;;;;;6245687;28;20017;-71
2021/12/15 11:05:35;;;;;;;204.57;90.25;;;;;;;;;;6245031;28;20446;-71
2021/12/15 11:08:36;;;;;;;181.18;83.40;;;;;;;;;;6245609;28;20026;-71
2021/12/15 11:11:36;;;;;;;185.13;82.75;;;;;;;;;;6245792;28;20028;-71
2021/12/15 11:14:39;;;;;;;165.35;77.97;;;;;;;;;;6245347;28;20093;-71
2021/12/15 11:17:44;;;;;;;176.38;82.18;;;;;;;;;;6237918;28;20549;-71
2021/12/15 11:20:44;;;;;;;174.20;83.57;;;;;;;;;;6227310;28;20022;-71
2021/12/15 11:23:45;;;;;;;193.63;83.07;;;;;;;;;;6245012;28;20021;-72
2021/12/15 11:26:46;;;;;;;201.60;85.78;;;;;;;;;;6244199;28;20307;-72
2021/12/15 11:29:46;;;;;;;188.40;75.00;;;;;;;;;;6244649;28;20496;-72
2021/12/15 11:32:48;;;;;;;169.70;73.20;;;;;;;;;;6237494;28;20381;-71
2021/12/15 11:35:51;;;;;;;158.95;70.15;;;;;;;;;;6244590;28;20022;-71
2021/12/15 11:38:54;;;;;;;172.93;79.82;;;;;;;;;;6245275;28;20543;-71
2021/12/15 11:41:54;;;;;;;185.23;85.97;;;;;;;;;;6245117;28;20025;-71
2021/12/15 11:45:03;;;;;;;197.30;84.85;;;;;;;;;;6240452;28;20031;-71
2021/12/15 11:48:11;;;;;;;160.90;76.35;;;;;;;;;;6234145;28;20036;-71
2021/12/15 11:51:11;;;;;;;194.20;94.50;;;;;;;;;;6243658;28;20481;-72
2021/12/15 11:54:29;;;;;;;148.93;70.60;;;;;;;;;;6243823;28;20049;-72
2021/12/15 11:57:30;;;;;;;168.13;81.07;;;;;;;;;;6242050;28;20028;-72
2021/12/15 12:00:30;;;;;;;133.18;60.15;;;;;;;;;;6244294;28;20021;-72
2021/12/15 12:03:30;;;;;;;119.93;55.80;;;;;;;;;;6225381;28;20040;-72
2021/12/15 12:06:31;;;;;;;164.90;90.90;;;;;;;;;;6248265;28;20021;-72
2021/12/15 12:09:35;;;;;;;135.48;59.28;;;;;;;;;;6242999;28;20042;-72
2021/12/15 12:12:40;;;;;;;129.82;61.47;;;;;;;;;;6244400;28;20017;-72
2021/12/15 12:15:42;;;;;;;136.25;61.92;;;;;;;;;;6243369;28;20109;-72
2021/12/15 12:18:42;;;;;;;143.10;67.55;;;;;;;;;;6243347;28;20520;-72
2021/12/15 12:21:42;;;;;;;113.72;48.95;;;;;;;;;;6241924;28;20025;-72
2021/12/15 12:24:44;;;;;;;126.20;53.55;;;;;;;;;;6243023;28;20025;-72
2021/12/15 12:27:45;;;;;;;126.57;55.67;;;;;;;;;;6242235;28;20025;-72
2021/12/15 12:30:47;;;;;;;155.07;68.37;;;;;;;;;;6240640;28;20464;-72
2021/12/15 12:33:49;;;;;;;156.27;67.70;;;;;;;;;;6242031;28;20022;-72
2021/12/15 12:36:50;;;;;;;138.68;57.75;;;;;;;;;;6243577;28;20017;-72
2021/12/15 12:39:54;;;;;;;147.43;64.28;;;;;;;;;;6242959;28;20048;-72
2021/12/15 12:42:54;;;;;;;147.82;66.57;;;;;;;;;;6243029;28;20020;-72
2021/12/15 12:46:04;;;;;;;144.48;65.38;;;;;;;;;;6239809;28;20025;-72
2021/12/15 12:59:25;;;;;;;126.57;54.13;;;;;;;;;;6235923;28;20022;-72
2021/12/15 13:02:47;;;;;;;110.13;49.30;;;;;;;;;;6235991;28;20556;-72
2021/12/15 13:05:50;;;;;;;105.50;53.40;;;;;;;;;;6239237;28;20457;-72
2021/12/15 13:08:54;;;;;;;116.43;50.78;;;;;;;;;;6227747;28;20132;-72
2021/12/15 13:11:54;;;;;;;114.68;49.17;;;;;;;;;;6234228;28;20026;-72
2021/12/15 13:14:56;;;;;;;110.80;43.88;;;;;;;;;;6242107;28;20013;-72
2021/12/15 13:18:01;;;;;;;113.88;54.00;;;;;;;;;;6234280;28;20026;-72
2021/12/15 13:21:06;;;;;;;113.15;50.45;;;;;;;;;;6241463;28;20489;-72
2021/12/15 13:28:39;;;;;;;118.05;52.88;;;;;;;;;;6252506;28;20048;-72
2021/12/15 13:31:05;;;;;;;112.88;47.65;;;;;;;;;;6226846;28;20037;-72
2021/12/15 13:34:06;;;;;;;108.47;45.10;;;;;;;;;;6239101;28;20159;-72
2021/12/15 13:37:06;;;;;;;93.30;40.55;;;;;;;;;;6240697;28;20348;-72
2021/12/15 13:40:10;;;;;;;123.55;53.10;;;;;;;;;;6242648;28;20021;-72
2021/12/15 13:43:28;;;;;;;122.10;55.17;;;;;;;;;;6227324;28;20029;-72
2021/12/15 13:46:31;;;;;;;111.97;53.10;;;;;;;;;;6225187;28;20450;-72
2021/12/15 13:49:38;;;;;;;123.85;52.67;;;;;;;;;;6217471;28;20040;-72
2021/12/15 13:52:39;;;;;;;119.32;52.33;;;;;;;;;;6248254;28;20028;-72
2021/12/15 13:55:40;;;;;;;165.13;76.30;;;;;;;;;;6214880;28;20049;-72
2021/12/15 13:58:40;;;;;;;182.50;81.15;;;;;;;;;;6222650;28;20388;-72
2021/12/15 14:01:40;;;;;;;167.52;71.65;;;;;;;;;;6238900;28;20053;-72
2021/12/15 14:04:42;;;;;;;130.10;62.78;;;;;;;;;;6227362;28;20465;-72
2021/12/15 14:07:45;;;;;;;106.95;48.75;;;;;;;;;;6223459;28;20029;-72
2021/12/15 14:10:54;;;;;;;105.55;45.40;;;;;;;;;;6214830;28;20053;-72
2021/12/15 14:14:08;;;;;;;107.45;42.53;;;;;;;;;;6215233;28;20034;-72
2021/12/15 14:17:09;;;;;;;109.65;48.28;;;;;;;;;;6221098;28;20029;-72
2021/12/15 14:20:10;;;;;;;110.88;49.95;;;;;;;;;;6239733;28;20075;-72
2021/12/15 14:23:18;;;;;;;121.47;50.85;;;;;;;;;;6233877;28;20549;-72
2021/12/15 14:26:21;;;;;;;115.32;51.60;;;;;;;;;;6239350;28;20098;-72
2021/12/15 14:29:23;;;;;;;108.55;43.95;;;;;;;;;;6234841;28;20025;-72
2021/12/15 14:32:24;;;;;;;;;;;;;;;;;;6233871;28;20417;-72
2021/12/15 14:35:24;;;;;;;108.30;42.00;;;;;;;;;;6219342;28;20341;-72
2021/12/15 14:38:43;;;;;;;99.05;46.28;;;;;;;;;;6219783;28;20014;-72
2021/12/15 14:41:45;;;;;;;119.85;51.78;;;;;;;;;;6222655;28;20491;-72
2021/12/15 14:44:45;;;;;;;;;;;;;;;;;;6262316;28;20018;-72
2021/12/15 14:47:45;;;;;;;99.53;45.85;;;;;;;;;;6245842;28;19913;-72
2021/12/15 14:50:46;;;;;;;113.97;50.85;;;;;;;;;;6245882;28;20020;-72
2021/12/15 14:53:46;;;;;;;101.85;47.58;;;;;;;;;;6245950;28;20087;-72
2021/12/15 14:56:57;;;;;;;89.00;37.88;;;;;;;;;;6223914;28;20426;-72
2021/12/15 15:00:05;;;;;;;108.97;47.37;;;;;;;;;;6238573;28;20026;-72
2021/12/15 15:03:07;;;;;;;107.43;47.58;;;;;;;;;;6238433;28;20516;-72
2021/12/15 15:06:07;;;;;;;119.63;55.45;;;;;;;;;;6225935;28;20068;-72
2021/12/15 15:09:25;;;;;;;137.27;60.08;;;;;;;;;;6221371;28;20536;-73
2021/12/15 15:12:27;;;;;;;123.30;58.50;;;;;;;;;;6225807;28;20021;-73
2021/12/15 15:15:31;;;;;;;134.13;57.42;;;;;;;;;;6219665;28;20434;-73
2021/12/15 15:18:34;;;;;;;127.25;54.92;;;;;;;;;;6231741;28;20465;-73
2021/12/15 15:21:34;;;;;;;138.73;57.70;;;;;;;;;;6245017;28;20017;-73
2021/12/15 15:24:34;;;;;;;114.97;54.78;;;;;;;;;;6244294;28;20024;-73
2021/12/15 15:27:46;;;;;;;123.93;60.72;;;;;;;;;;6242560;28;20071;-73
2021/12/15 15:30:48;;;;;;;115.63;50.58;;;;;;;;;;6225482;28;20021;-73
2021/12/15 15:33:48;;;;;;;115.37;53.47;;;;;;;;;;6227556;28;20043;-73
2021/12/15 15:36:50;;;;;;;128.68;56.63;;;;;;;;;;6222902;28;20426;-73
2021/12/15 15:40:19;;;;;;;130.70;63.45;;;;;;;;;;6251427;28;20033;-73
2021/12/15 15:43:28;;;;;;;146.13;64.85;;;;;;;;;;6221403;28;20065;-72
2021/12/15 15:46:36;;;;;;;125.05;59.40;;;;;;;;;;6221583;28;20075;-72
2021/12/15 15:49:36;;;;;;;126.47;66.75;;;;;;;;;;6230695;28;20021;-72
2021/12/15 15:52:48;;;;;;;130.05;60.58;;;;;;;;;;6226008;28;20072;-72
2021/12/15 15:55:55;;;;;;;110.95;56.88;;;;;;;;;;6216853;28;20006;-72
2021/12/15 15:59:01;;;;;;;132.02;66.35;;;;;;;;;;6226721;28;20629;-72
2021/12/15 16:02:03;;;;;;;134.88;71.05;;;;;;;;;;6222212;28;20096;-72
2021/12/15 16:05:07;;;;;;;138.50;67.78;;;;;;;;;;6218684;28;20017;-72
2021/12/15 16:08:07;;;;;;;123.32;64.75;;;;;;;;;;6241309;28;20474;-72
2021/12/15 16:11:14;;;;;;;127.45;62.90;;;;;;;;;;6240870;28;20060;-72
2021/12/15 16:14:15;;;;;;;119.47;56.33;;;;;;;;;;6230120;28;20558;-72
2021/12/15 16:17:23;;;;;;;116.90;52.97;;;;;;;;;;6217796;28;20457;-72
2021/12/15 16:20:37;;;;;;;114.25;54.85;;;;;;;;;;6216125;28;20037;-72
2021/12/15 16:23:39;;;;;;;113.22;55.28;;;;;;;;;;6224262;28;20029;-72
2021/12/15 16:26:42;;;;;;;110.90;56.07;;;;;;;;;;6218553;28;20104;-72
2021/12/15 16:29:44;;;;;;;105.22;51.17;;;;;;;;;;6231869;28;20021;-72
2021/12/15 16:32:46;;;;;;;99.10;48.42;;;;;;;;;;6220721;28;20100;-72
2021/12/15 16:35:46;;;;;;;96.88;48.22;;;;;;;;;;6223199;28;20018;-72
2021/12/15 16:38:47;;;;;;;102.07;47.22;;;;;;;;;;6228946;28;20468;-72
2021/12/15 16:41:52;;;;;;;112.47;51.37;;;;;;;;;;6217316;28;20088;-72
2021/12/15 16:44:55;;;;;;;123.00;56.33;;;;;;;;;;6216680;28;20020;-72
2021/12/15 16:47:55;;;;;;;110.78;52.30;;;;;;;;;;6217399;28;20029;-72
2021/12/15 16:51:11;;;;;;;103.03;50.50;;;;;;;;;;6218215;28;20017;-72
2021/12/15 16:54:16;;;;;;;112.13;57.30;;;;;;;;;;6235030;28;20052;-72
2021/12/15 16:57:21;;;;;;;122.43;55.35;;;;;;;;;;6231624;28;20573;-72
2021/12/15 17:00:30;;;;;;;110.22;53.72;;;;;;;;;;6215804;28;20014;-72
2021/12/15 17:03:39;;;;;;;104.20;50.55;;;;;;;;;;6229136;28;20068;-72
2021/12/15 17:06:39;;;;;;;112.03;57.00;;;;;;;;;;6235122;28;20057;-72
2021/12/15 17:09:48;;;;;;;111.10;58.25;;;;;;;;;;6220938;28;20052;-72
2021/12/15 17:12:59;;;;;;;122.80;61.00;;;;;;;;;;6215841;28;20606;-72
2021/12/15 17:16:06;;;;;;;137.63;70.18;;;;;;;;;;6236955;28;20474;-72
2021/12/15 17:19:22;;;;;;;134.98;69.25;;;;;;;;;;6227338;28;20065;-72
2021/12/15 17:22:22;;;;;;;136.85;63.00;;;;;;;;;;6228057;28;20030;-72
2021/12/15 17:25:26;;;;;;;128.00;62.90;;;;;;;;;;6242057;28;20044;-72
2021/12/15 17:28:32;;;;;;;139.20;68.95;;;;;;;;;;6224107;28;20398;-72
2021/12/15 17:31:37;;;;;;;115.47;57.67;;;;;;;;;;6226856;28;20493;-72
2021/12/15 17:34:40;;;;;;;114.22;56.85;;;;;;;;;;6240990;28;20013;-72
2021/12/15 17:37:40;;;;;;;139.38;69.10;;;;;;;;;;6240209;28;20033;-72
2021/12/15 17:40:41;;;;;;;145.23;74.82;;;;;;;;;;6241069;28;20492;-72
2021/12/15 17:43:44;;;;;;;168.57;85.40;;;;;;;;;;6224510;28;20124;-72
2021/12/15 17:46:53;;;;;;;155.98;81.95;;;;;;;;;;6235388;28;20026;-72
2021/12/15 17:50:05;;;;;;;131.90;66.50;;;;;;;;;;6225997;28;20088;-72
2021/12/15 17:53:13;;;;;;;;;;;;;;;;;;6235089;28;20033;-72
2021/12/15 17:56:13;;;;;;;107.95;50.22;;;;;;;;;;6230601;28;20428;-72
2021/12/15 17:59:17;;;;;;;100.10;51.53;;;;;;;;;;6223890;28;20056;-72
2021/12/15 18:02:22;;;;;;;94.72;54.10;;;;;;;;;;6233491;28;20546;-72
2021/12/15 18:05:25;;;;;;;111.13;58.60;;;;;;;;;;6224147;28;20418;-72
2021/12/15 18:08:30;;;;;;;105.57;54.88;;;;;;;;;;6229267;28;20025;-72
2021/12/15 18:11:30;;;;;;;108.78;56.28;;;;;;;;;;6240334;28;20489;-72
2021/12/15 18:14:31;;;;;;;108.55;56.47;;;;;;;;;;6243688;28;20083;-72
2021/12/15 18:17:32;;;;;;;97.28;51.83;;;;;;;;;;6241393;28;20029;-72
2021/12/15 18:20:33;;;;;;;119.93;62.33;;;;;;;;;;6237326;28;20034;-72
2021/12/15 18:23:35;;;;;;;118.85;55.28;;;;;;;;;;6229980;28;20462;-72
2021/12/15 18:26:35;;;;;;;;;;;;;;;;;;6241958;28;20447;-72
2021/12/15 18:29:40;;;;;;;143.27;69.25;;;;;;;;;;6245785;28;20281;-72
2021/12/15 18:32:43;;;;;;;116.45;58.22;;;;;;;;;;6247014;28;20013;-72
2021/12/15 18:35:46;;;;;;;124.15;55.92;;;;;;;;;;6261450;28;20497;-73
2021/12/15 18:38:52;;;;;;;106.50;51.10;;;;;;;;;;6246270;28;20045;-73
2021/12/15 18:41:54;;;;;;;63.10;30.35;;;;;;;;;;6240264;28;20445;-73
2021/12/15 18:44:57;;;;;;;;;;;;;;;;;;6238064;28;20049;-73
2021/12/15 18:48:04;;;;;;;99.05;49.28;;;;;;;;;;6246029;28;19909;-73
2021/12/15 18:51:07;;;;;;;109.65;58.08;;;;;;;;;;6238968;28;20026;-73
2021/12/15 18:54:08;;;;;;;103.65;49.22;;;;;;;;;;6244668;28;20045;-73
2021/12/15 18:57:13;;;;;;;102.18;54.63;;;;;;;;;;6244528;28;20440;-73